Time;durP1;ratioP1;P1;durP2;ratioP2;P2;SDS_P1;SDS_P2;PMS_P1;PMS_P2;Temp;Humidity;BMP_temperature;BMP_pressure;BME280_temperature;BME280_humidity;BME280_pressure;Samples;Min_cycle;Max_cycle;Signal;HPM_P1;HPM_P2
2021/12/01 00:39:26;;;;;;;;;;;;;;;;;;;;;
2021/12/01 00:41:55;;;;;;;;;6.75;6.75;;;;;10.33;67.54;100565.81;6253276;22;76366;-87
2021/12/01 00:44:31;;;;;;;;;3.50;2.50;;;;;10.30;67.78;100543.03;6410508;22;45482;-87
2021/12/01 00:49:58;;;;;;;;;3.25;3.25;;;;;10.32;67.83;100536.00;6409603;22;45610;-86
2021/12/01 00:52:53;;;;;;;;;5.00;5.00;;;;;10.33;67.93;100521.97;6382595;22;46983;-86
2021/12/01 00:58:14;;;;;;;;;8.75;4.75;;;;;10.26;68.07;100495.66;6392110;22;44849;-86
2021/12/01 01:00:54;;;;;;;;;;;;;;;;;;;;;
2021/12/01 01:03:34;;;;;;;;;;;;;;;;;;;;;
2021/12/01 01:06:09;;;;;;;;;4.50;3.50;;;;;10.26;67.78;100487.78;6406754;22;71880;-86
2021/12/01 01:08:35;;;;;;;;;3.00;3.00;;;;;10.35;67.93;100498.28;6382622;22;45365;-86
2021/12/01 01:16:28;;;;;;;;;4.75;3.25;;;;;10.29;68.15;100487.78;6408168;22;45171;-87
2021/12/01 01:19:17;;;;;;;;;;;;;;;;;;;;;
2021/12/01 01:21:55;;;;;;;;;2.50;2.50;;;;;10.30;68.12;100457.97;6407615;22;72705;-86
2021/12/01 01:24:24;;;;;;;;;1.00;1.00;;;;;10.29;68.13;100454.47;6383149;22;46630;-86
2021/12/01 01:26:59;;;;;;;;;1.50;1.50;;;;;10.28;67.73;100449.22;6388478;22;45262;-85
2021/12/01 01:29:25;;;;;;;;;2.50;2.50;;;;;10.36;68.03;100452.66;6386151;22;45277;-86
2021/12/01 01:31:57;;;;;;;;;2.75;2.00;;;;;10.31;67.81;100451.81;6381227;22;45551;-86
2021/12/01 01:34:27;;;;;;;;;1.00;1.00;;;;;10.36;67.92;100473.69;6380531;22;48026;-87
2021/12/01 01:36:55;;;;;;;;;2.00;2.00;;;;;10.33;68.12;100453.53;6379365;22;45180;-88
2021/12/01 01:39:32;;;;;;;;;;;;;;;;;;;;;
2021/12/01 01:42:03;;;;;;;;;2.75;1.00;;;;;10.32;68.31;100446.56;6407367;22;71813;-87
2021/12/01 01:44:31;;;;;;;;;1.33;1.33;;;;;10.35;68.26;100435.13;6408217;22;46259;-87
2021/12/01 01:47:17;;;;;;;;;2.00;1.75;;;;;10.36;68.54;100455.28;6378307;22;45179;-87
2021/12/01 01:53:48;;;;;;;;;2.75;1.50;;;;;10.35;68.72;100437.75;6404715;22;45332;-87
2021/12/01 02:00:10;;;;;;;;;;;;;;;;;;;;;
2021/12/01 02:02:44;;;;;;;;;3.25;1.50;;;;;10.39;69.10;100436.84;6402937;22;67880;-86
2021/12/01 02:05:11;;;;;;;;;2.00;2.00;;;;;10.37;69.40;100433.34;6406978;22;45317;-86
2021/12/01 02:07:40;;;;;;;;;1.00;1.00;;;;;10.27;69.26;100431.66;6377913;22;46222;-87
2021/12/01 02:10:09;;;;;;;;;0.75;0.75;;;;;10.24;69.55;100406.25;6377513;22;45114;-86
2021/12/01 02:12:47;;;;;;;;;3.00;2.00;;;;;10.31;69.61;100425.50;6406797;22;45283;-85
2021/12/01 02:15:43;;;;;;;;;;;;;;;;;;;;;
2021/12/01 02:18:12;;;;;;;;;3.00;1.25;;;;;10.30;69.18;100384.31;6404781;22;74592;-86
2021/12/01 02:21:26;;;;;;;;;;;;;;;;;;;;;
2021/12/01 02:24:05;;;;;;;;;;;;;;;;;;;;;
2021/12/01 02:26:54;;;;;;;;;0.00;0.00;;;;;10.38;69.17;100374.59;6405785;22;71157;-86
2021/12/01 02:29:37;;;;;;;;;;;;;;;;;;;;;
2021/12/01 02:32:49;;;;;;;;;;;;;;;;;;;;;
2021/12/01 02:35:25;;;;;;;;;;;;;;;;;;;;;
2021/12/01 02:38:21;;;;;;;;;1.00;1.00;;;;;10.41;69.03;100335.06;6409856;22;73269;-86
2021/12/01 02:41:12;;;;;;;;;3.00;1.00;;;;;10.39;69.40;100334.22;6360418;22;47987;-87
2021/12/01 02:43:49;;;;;;;;;1.00;1.00;;;;;10.31;69.59;100317.63;6378471;22;45309;-87
2021/12/01 02:46:48;;;;;;;;;;;;;;;;;;;;;
2021/12/01 02:49:07;;;;;;;;;3.00;2.00;;;;;10.30;70.13;100287.81;6400944;22;45156;-86
2021/12/01 02:52:15;;;;;;;;;;;;;;;;;;;;;
2021/12/01 02:55:25;;;;;;;;;;;;;;;;;;;;;
2021/12/01 03:05:12;;;;;;;;;;;;;;;;;;;;;
2021/12/01 03:08:09;;;;;;;;;2.00;2.00;;;;;10.25;70.86;100223.81;6409664;22;71682;-86
2021/12/01 03:10:47;;;;;;;;;;;;;;;;;;;;;
2021/12/01 03:13:33;;;;;;;;;;;;;;;;;;;;;
2021/12/01 03:16:20;;;;;;;;;3.75;2.00;;;;;10.24;70.95;100216.81;6407952;22;75541;-87
2021/12/01 03:19:09;;;;;;;;;;;;;;;;;;;;;
2021/12/01 03:22:11;;;;;;;;;1.25;1.25;;;;;10.19;71.26;100200.22;6412108;22;68748;-87
2021/12/01 03:27:36;;;;;;;;;1.00;1.00;;;;;10.21;72.03;100194.94;6392419;22;45753;-87
2021/12/01 03:30:37;;;;;;;;;;;;;;;;;;;;;
2021/12/01 03:33:27;;;;;;;;;1.00;1.00;;;;;10.22;72.37;100183.53;6408494;22;69276;-87
2021/12/01 03:36:25;;;;;;;;;1.00;1.00;;;;;10.27;72.53;100177.34;6383728;22;45337;-86
2021/12/01 03:39:20;;;;;;;;;;;;;;;;;;;;;
2021/12/01 03:41:59;;;;;;;;;1.00;1.00;;;;;10.24;73.32;100158.94;6410743;22;73252;-86
2021/12/01 03:45:05;;;;;;;;;;;;;;;;;;;;;
2021/12/01 03:47:51;;;;;;;;;;;;;;;;;;;;;
2021/12/01 03:51:07;;;;;;;;;;;;;;;;;;;;;
2021/12/01 03:54:26;;;;;;;;;;;;;;;;;;;;;
2021/12/01 04:00:45;;;;;;;;;0.67;0.00;;;;;10.24;74.36;100097.59;6409314;22;44828;-85
2021/12/01 04:03:54;;;;;;;;;1.00;1.00;;;;;10.11;74.52;100053.00;6378446;22;47633;-87
2021/12/01 04:06:50;;;;;;;;;0.67;0.67;;;;;10.16;74.69;100061.72;6301517;22;45360;-87
2021/12/01 04:09:51;;;;;;;;;;;;;;;;;;;;;
2021/12/01 04:13:05;;;;;;;;;;;;;;;;;;;;;
2021/12/01 04:15:55;;;;;;;;;1.00;1.00;;;;;10.11;75.10;100031.97;6404988;22;74763;-86
2021/12/01 04:19:14;;;;;;;;;;;;;;;;;;;;;
2021/12/01 04:21:51;;;;;;;;;1.00;1.00;;;;;10.20;75.21;100024.84;6410110;22;67900;-87
2021/12/01 04:28:07;;;;;;;;;;;;;;;;;;;;;
2021/12/01 04:30:44;;;;;;;;;0.00;0.00;;;;;10.26;75.36;100001.06;6407142;22;71428;-86
2021/12/01 04:33:20;;;;;;;;;;;;;;;;;;;;;
2021/12/01 04:36:24;;;;;;;;;;;;;;;;;;;;;
2021/12/01 04:39:43;;;;;;;;;;;;;;;;;;;;;
2021/12/01 04:45:58;;;;;;;;;;;;;;;;;;;;;
2021/12/01 04:49:08;;;;;;;;;;;;;;;;;;;;;
2021/12/01 04:52:21;;;;;;;;;;;;;;;;;;;;;
2021/12/01 04:54:58;;;;;;;;;;;;;;;;;;;;;
2021/12/01 05:07:46;;;;;;;;;;;;;;;;;;;;;
2021/12/01 05:10:55;;;;;;;;;0.67;0.67;;;;;10.26;75.98;99899.34;6407036;22;67258;-86
2021/12/01 05:14:55;;;;;;;;;;;;;;;;;;;;;
2021/12/01 05:20:39;;;;;;;;;;;;;;;;;;;;;
2021/12/01 05:23:55;;;;;;;;;;;;;;;;;;;;;
2021/12/01 05:27:10;;;;;;;;;;;;;;;;;;;;;
2021/12/01 05:30:29;;;;;;;;;;;;;;;;;;;;;
2021/12/01 05:36:28;;;;;;;;;;;;;;;;;;;;;
2021/12/01 05:46:10;;;;;;;;;;;;;;;;;;;;;
2021/12/01 05:52:29;;;;;;;;;;;;;;;;;;;;;
2021/12/01 05:55:48;;;;;;;;;;;;;;;;;;;;;
2021/12/01 05:58:58;;;;;;;;;;;;;;;;;;;;;
2021/12/01 06:08:41;;;;;;;;;;;;;;;;;;;;;
2021/12/01 06:12:02;;;;;;;;;;;;;;;;;;;;;
2021/12/01 06:14:52;;;;;;;;;;;;;;;;;;;;;
2021/12/01 06:17:58;;;;;;;;;;;;;;;;;;;;;
2021/12/01 06:20:54;;;;;;;;;;;;;;;;;;;;;
2021/12/01 06:23:57;;;;;;;;;;;;;;;;;;;;;
2021/12/01 06:26:28;;;;;;;;;2.00;2.00;;;;;10.29;76.54;99765.19;6396730;22;45169;-89
2021/12/01 06:29:19;;;;;;;;;;;;;;;;;;;;;
2021/12/01 06:35:27;;;;;;;;;;;;;;;;;;;;;
2021/12/01 06:38:16;;;;;;;;;;;;;;;;;;;;;
2021/12/01 06:41:08;;;;;;;;;;;;;;;;;;;;;
2021/12/01 06:44:35;;;;;;;;;;;;;;;;;;;;;
2021/12/01 06:47:21;;;;;;;;;;;;;;;;;;;;;
2021/12/01 06:50:13;;;;;;;;;0.00;0.00;;;;;10.51;77.24;99728.81;6408087;22;67779;-89
2021/12/01 06:52:39;;;;;;;;;2.00;2.00;;;;;10.57;76.98;99731.31;6388692;22;45383;-86
2021/12/01 06:55:09;;;;;;;;;0.00;0.00;;;;;10.55;77.19;99727.84;6378533;22;46709;-86
2021/12/01 06:58:50;;;;;;;;;;;;;;;;;;;;;
2021/12/01 07:01:16;;;;;;;;;0.00;0.00;;;;;10.65;77.27;99722.41;6243887;22;68876;-84
2021/12/01 07:03:45;;;;;;;;;0.00;0.00;;;;;10.73;77.30;99726.59;6246778;22;45444;-85
2021/12/01 07:06:13;;;;;;;;;1.00;0.00;;;;;10.65;77.71;99711.88;6227595;22;47003;-84
2021/12/01 07:08:38;;;;;;;;;0.00;0.00;;;;;10.71;77.64;99727.53;6225882;22;45308;-85
2021/12/01 07:11:05;;;;;;;;;0.00;0.00;;;;;10.79;77.71;99729.09;6245196;22;45322;-85
2021/12/01 07:13:34;;;;;;;;;0.00;0.00;;;;;10.84;77.83;99736.91;6399664;22;45453;-85
2021/12/01 07:16:05;;;;;;;;;1.00;0.00;;;;;10.72;77.85;99711.72;6375857;22;45966;-86
2021/12/01 07:18:33;;;;;;;;;0.00;0.00;;;;;10.79;77.80;99722.97;6404430;22;45310;-86
2021/12/01 07:20:59;;;;;;;;;0.00;0.00;;;;;10.84;78.20;99738.69;6376114;22;45152;-85
2021/12/01 07:23:25;;;;;;;;;1.00;0.00;;;;;10.86;78.33;99731.63;6376272;22;45544;-81
2021/12/01 07:25:50;;;;;;;;;0.00;0.00;;;;;10.80;78.34;99716.81;6404585;22;46148;-82
2021/12/01 07:28:16;;;;;;;;;0.00;0.00;;;;;10.85;78.13;99719.34;6404592;22;45218;-85
2021/12/01 07:30:51;;;;;;;;;;;;;;;;;;;;;
2021/12/01 07:33:17;;;;;;;;;0.00;0.00;;;;;10.92;78.08;99734.13;6402957;22;71731;-86
2021/12/01 07:35:45;;;;;;;;;0.00;0.00;;;;;10.85;78.00;99714.94;6375540;22;46166;-85
2021/12/01 07:38:12;;;;;;;;;0.00;0.00;;;;;10.91;77.75;99713.97;6404103;22;45412;-84
2021/12/01 07:40:38;;;;;;;;;0.00;0.00;;;;;10.97;77.75;99733.09;6375701;22;45242;-84
2021/12/01 07:43:03;;;;;;;;;0.00;0.00;;;;;10.98;77.56;99739.25;6404755;22;45124;-82
2021/12/01 07:45:44;;;;;;;;;;;;;;;;;;;;;
2021/12/01 07:48:20;;;;;;;;;0.00;0.00;;;;;10.98;77.26;99718.16;6402900;22;72291;-80
2021/12/01 07:50:50;;;;;;;;;1.00;0.00;;;;;11.09;77.51;99734.59;6403474;22;45349;-83
2021/12/01 07:53:18;;;;;;;;;0.00;0.00;;;;;11.09;76.94;99733.72;6372100;22;45231;-81
2021/12/01 07:55:46;;;;;;;;;0.00;0.00;;;;;11.11;77.32;99724.91;6374663;22;45270;-81
2021/12/01 07:58:11;;;;;;;;;0.00;0.00;;;;;11.15;76.85;99708.13;6373413;22;45367;-80
2021/12/01 08:00:37;;;;;;;;;0.00;0.00;;;;;11.20;76.70;99710.66;6345402;22;45322;-82
2021/12/01 08:03:03;;;;;;;;;0.00;0.00;;;;;11.17;76.21;99708.09;6345272;22;45300;-82
2021/12/01 08:05:29;;;;;;;;;0.00;0.00;;;;;11.10;76.42;99699.47;6375443;22;45479;-82
2021/12/01 08:07:55;;;;;;;;;0.00;0.00;;;;;11.14;76.27;99695.00;6348227;22;45627;-82
2021/12/01 08:10:24;;;;;;;;;2.33;2.00;;;;;11.17;76.16;99693.16;6345735;22;45331;-81
2021/12/01 08:12:52;;;;;;;;;0.00;0.00;;;;;11.24;76.05;99693.88;6345536;22;45263;-82
2021/12/01 08:15:18;;;;;;;;;0.00;0.00;;;;;11.19;75.87;99685.22;6373797;22;45352;-81
2021/12/01 08:17:43;;;;;;;;;0.00;0.00;;;;;11.23;75.73;99692.16;6344848;22;45234;-82
2021/12/01 08:20:09;;;;;;;;;0.00;0.00;;;;;11.19;75.46;99688.72;6373833;22;45274;-83
2021/12/01 08:22:35;;;;;;;;;0.00;0.00;;;;;11.16;75.71;99675.63;6373474;22;45401;-82
2021/12/01 08:25:00;;;;;;;;;3.00;2.00;;;;;11.19;75.83;99682.59;6344405;22;47840;-83
2021/12/01 08:27:30;;;;;;;;;0.00;0.00;;;;;11.19;75.57;99691.34;6345133;22;45170;-84
2021/12/01 08:30:06;;;;;;;;;;;;;;;;;;;;;
2021/12/01 08:32:31;;;;;;;;;0.00;0.00;;;;;11.36;75.42;99706.78;6371262;22;73256;-81
2021/12/01 08:35:09;;;;;;;;;0.00;0.00;;;;;11.34;75.55;99695.41;6344600;22;45933;-80
2021/12/01 08:37:36;;;;;;;;;0.00;0.00;;;;;11.37;75.16;99691.84;6373369;22;45167;-81
2021/12/01 08:40:05;;;;;;;;;2.00;2.00;;;;;11.53;75.28;99708.16;6345163;22;45278;-80
2021/12/01 08:42:37;;;;;;;;;0.00;0.00;;;;;11.55;75.02;99694.03;6374201;22;44701;-79
2021/12/01 08:45:06;;;;;;;;;3.67;2.00;;;;;11.58;75.17;99685.19;6373487;22;46517;-80
2021/12/01 08:47:32;;;;;;;;;1.00;1.00;;;;;11.62;74.58;99678.91;6373127;22;45266;-80
2021/12/01 08:49:58;;;;;;;;;0.67;0.67;;;;;11.66;74.25;99686.72;6345194;22;45330;-81
2021/12/01 08:52:23;;;;;;;;;0.00;0.00;;;;;11.72;74.20;99687.47;6344553;22;45398;-81
2021/12/01 08:54:49;;;;;;;;;0.00;0.00;;;;;11.72;74.03;99675.13;6344951;22;47870;-81
2021/12/01 08:57:14;;;;;;;;;0.00;0.00;;;;;11.89;73.97;99691.44;6373879;22;45207;-82
2021/12/01 08:59:45;;;;;;;;;0.00;0.00;;;;;11.99;73.62;99694.69;6345292;22;45631;-82
2021/12/01 09:02:13;;;;;;;;;0.00;0.00;;;;;12.06;73.46;99682.19;6344427;22;45467;-82
2021/12/01 09:04:41;;;;;;;;;0.00;0.00;;;;;12.17;73.48;99697.75;6373432;22;46453;-82
2021/12/01 09:07:12;;;;;;;;;0.00;0.00;;;;;12.16;73.15;99691.56;6373241;22;45276;-82
2021/12/01 09:09:40;;;;;;;;;1.00;0.00;;;;;12.22;72.46;99683.50;6344368;22;45401;-82
2021/12/01 09:12:06;;;;;;;;;0.00;0.00;;;;;12.22;71.84;99683.50;6344366;22;45162;-82
2021/12/01 09:14:40;;;;;;;;;1.00;1.00;;;;;12.20;71.32;99684.47;6372584;22;45231;-82
2021/12/01 09:17:17;;;;;;;;;1.00;1.00;;;;;12.17;71.50;99680.13;6343877;22;45226;-83
2021/12/01 09:19:56;;;;;;;;;0.00;0.00;;;;;12.18;71.00;99696.81;6344331;22;45180;-81
2021/12/01 09:22:25;;;;;;;;;0.00;0.00;;;;;12.11;70.93;99682.94;6372474;22;45368;-81
2021/12/01 09:24:53;;;;;;;;;0.67;0.67;;;;;12.10;71.23;99694.38;6344411;22;47093;-82
2021/12/01 09:27:27;;;;;;;;;2.00;1.00;;;;;12.04;70.92;99695.41;6369962;22;45392;-82
2021/12/01 09:29:53;;;;;;;;;0.00;0.00;;;;;12.09;70.23;99711.13;6344720;22;45417;-82
2021/12/01 09:32:19;;;;;;;;;0.33;0.33;;;;;12.08;70.55;99701.47;6343523;22;45393;-82
2021/12/01 09:34:45;;;;;;;;;0.00;0.00;;;;;12.01;69.96;99702.56;6341835;22;46899;-83
2021/12/01 09:37:26;;;;;;;;;0.00;0.00;;;;;12.05;70.15;99704.19;6340558;22;45297;-83
2021/12/01 09:39:52;;;;;;;;;2.00;2.00;;;;;12.05;70.28;99710.34;6372387;22;45271;-83
2021/12/01 09:42:28;;;;;;;;;1.00;1.00;;;;;12.09;69.74;99700.59;6343606;22;45455;-82
2021/12/01 09:44:55;;;;;;;;;2.67;0.00;;;;;12.19;69.78;99710.00;6372829;22;45416;-82
2021/12/01 09:47:29;;;;;;;;;1.33;0.00;;;;;12.24;69.33;99733.59;6371915;22;45406;-82
2021/12/01 09:49:55;;;;;;;;;0.00;0.00;;;;;12.16;69.37;99717.09;6343424;22;45373;-81
2021/12/01 09:52:23;;;;;;;;;0.00;0.00;;;;;12.21;69.28;99725.75;6372264;22;45368;-81
2021/12/01 09:54:49;;;;;;;;;0.00;0.00;;;;;12.23;69.03;99729.22;6371868;22;45221;-81
2021/12/01 09:57:17;;;;;;;;;0.00;0.00;;;;;12.22;69.30;99720.47;6371770;22;45106;-83
2021/12/01 09:59:45;;;;;;;;;1.00;0.00;;;;;12.20;69.36;99731.97;6372425;22;45097;-83
2021/12/01 10:02:17;;;;;;;;;2.00;1.00;;;;;12.18;69.38;99737.25;6343575;22;45433;-82
2021/12/01 10:04:46;;;;;;;;;2.00;1.00;;;;;12.09;69.25;99725.19;6339634;22;47465;-82
2021/12/01 10:07:39;;;;;;;;;0.00;0.00;;;;;11.93;68.94;99726.50;6370897;22;45388;-83
2021/12/01 10:10:07;;;;;;;;;0.00;0.00;;;;;11.76;68.05;99721.63;6347164;22;45366;-83
2021/12/01 10:12:49;;;;;;;;;0.00;0.00;;;;;11.73;68.17;99739.28;6345708;22;45219;-84
2021/12/01 10:15:28;;;;;;;;;0.00;0.00;;;;;11.51;68.25;99734.53;6372491;22;46030;-82
2021/12/01 10:18:11;;;;;;;;;0.00;0.00;;;;;11.49;68.94;99744.22;6372564;22;45246;-83
2021/12/01 10:20:37;;;;;;;;;0.00;0.00;;;;;11.30;69.54;99730.63;6343581;22;45453;-83
2021/12/01 10:23:20;;;;;;;;;0.00;0.00;;;;;11.25;70.02;99737.75;6343654;22;45456;-83
2021/12/01 10:25:45;;;;;;;;;1.00;0.00;;;;;11.19;70.32;99740.53;6343168;22;45942;-82
2021/12/01 10:28:34;;;;;;;;;2.00;1.00;;;;;11.02;71.04;99739.16;6372412;22;45215;-83
2021/12/01 10:31:00;;;;;;;;;0.00;0.00;;;;;11.02;71.43;99738.28;6343449;22;45258;-83
2021/12/01 10:33:28;;;;;;;;;2.00;2.00;;;;;11.00;71.32;99738.31;6343620;22;45183;-83
2021/12/01 10:35:54;;;;;;;;;0.67;0.67;;;;;11.00;71.55;99737.44;6343201;22;47857;-83
2021/12/01 10:38:40;;;;;;;;;0.00;0.00;;;;;11.01;71.73;99747.06;6371698;22;45300;-83
2021/12/01 10:41:10;;;;;;;;;2.67;1.00;;;;;11.06;71.66;99744.34;6372312;22;45299;-83
2021/12/01 10:43:45;;;;;;;;;0.67;0.67;;;;;10.99;71.58;99730.47;6371244;22;45387;-83
2021/12/01 10:46:16;;;;;;;;;1.33;1.00;;;;;11.03;71.62;99732.09;6342375;22;48052;-83
2021/12/01 10:48:43;;;;;;;;;1.00;1.00;;;;;11.01;71.62;99724.25;6342618;22;45361;-84
2021/12/01 10:51:11;;;;;;;;;2.00;1.00;;;;;11.12;71.75;99739.81;6343808;22;45295;-84
2021/12/01 10:53:38;;;;;;;;;0.00;0.00;;;;;11.19;71.55;99730.84;6372001;22;45190;-84
2021/12/01 10:56:07;;;;;;;;;1.00;1.00;;;;;11.27;71.74;99717.50;6366164;22;45969;-83
2021/12/01 10:58:39;;;;;;;;;0.67;0.67;;;;;11.55;71.72;99738.84;6340675;22;45655;-81
2021/12/01 11:01:26;;;;;;;;;2.67;1.00;;;;;11.61;71.07;99730.78;6340895;22;45374;-83
2021/12/01 11:03:52;;;;;;;;;2.00;1.00;;;;;11.69;70.86;99733.22;6339872;22;45496;-83
2021/12/01 11:12:27;;;;;;;;;1.00;1.00;;;;;11.95;69.79;99718.53;6352454;22;45553;-86
2021/12/01 11:14:55;;;;;;;;;2.67;2.67;;;;;11.86;69.68;99719.63;6370718;22;45490;-86
2021/12/01 11:17:42;;;;;;;;;0.67;0.67;;;;;11.78;69.60;99730.34;6341869;22;48319;-84
2021/12/01 11:20:08;;;;;;;;;2.00;2.00;;;;;11.81;69.38;99732.03;6370935;22;45116;-86
2021/12/01 11:23:33;;;;;;;;;2.00;2.00;;;;;11.98;69.09;99739.56;6369771;22;45185;-83
2021/12/01 11:26:07;;;;;;;;;2.00;1.00;;;;;12.07;69.12;99727.00;6337752;22;45601;-84
2021/12/01 11:28:37;;;;;;;;;1.00;1.00;;;;;12.09;68.69;99714.63;6340089;22;46762;-83
2021/12/01 11:31:07;;;;;;;;;1.00;1.00;;;;;12.20;68.36;99703.78;6341490;22;45392;-83
2021/12/01 11:33:35;;;;;;;;;3.00;1.00;;;;;12.51;68.34;99716.13;6372196;22;45262;-84
2021/12/01 11:36:05;;;;;;;;;1.33;1.33;;;;;12.69;67.77;99704.19;6371108;22;45718;-84
2021/12/01 11:38:36;;;;;;;;;1.33;1.00;;;;;12.86;67.68;99712.50;6344069;22;47035;-82
2021/12/01 11:41:06;;;;;;;;;1.00;1.00;;;;;13.11;66.30;99720.53;6339607;22;45642;-84
2021/12/01 11:43:37;;;;;;;;;2.67;2.67;;;;;13.25;66.20;99710.38;6341844;22;45229;-83
2021/12/01 11:46:07;;;;;;;;;2.00;1.00;;;;;13.25;64.88;99712.16;6344970;22;45546;-82
2021/12/01 11:48:37;;;;;;;;;0.33;0.33;;;;;13.23;64.88;99713.97;6369861;22;46181;-83
2021/12/01 11:51:28;;;;;;;;;2.00;2.00;;;;;13.05;64.70;99702.22;6342463;22;45389;-84
2021/12/01 11:54:16;;;;;;;;;;;;;;;;;;;;;
2021/12/01 11:57:50;;;;;;;;;1.67;1.67;;;;;12.93;63.97;99715.78;6368567;22;72338;-83
2021/12/01 12:00:18;;;;;;;;;2.00;1.00;;;;;13.22;64.29;99707.84;6364163;22;46418;-85
2021/12/01 12:15:06;;;;;;;;;1.33;1.33;;;;;14.04;61.41;99694.63;6210651;22;45481;-84
2021/12/01 12:18:40;;;;;;;;;;;;;;;;;;;;;
2021/12/01 12:31:39;;;;;;;;;;;;;;;;;;;;;
2021/12/01 12:41:36;;;;;;;;;1.00;1.00;;;;;12.69;62.92;99696.25;6275549;22;45258;-86
2021/12/01 12:44:35;;;;;;;;;2.67;2.00;;;;;12.54;63.53;99705.50;6342512;22;45382;-85
2021/12/01 12:47:10;;;;;;;;;1.00;1.00;;;;;12.34;63.82;99675.25;6371263;22;45448;-83
2021/12/01 12:50:23;;;;;;;;;3.33;2.00;;;;;12.35;64.30;99700.75;6342793;22;46968;-85
2021/12/01 12:52:52;;;;;;;;;4.00;3.00;;;;;12.34;64.21;99698.13;6371504;22;45427;-85
2021/12/01 12:55:23;;;;;;;;;0.00;0.00;;;;;12.37;64.29;99698.03;6371674;22;45432;-86
2021/12/01 13:02:21;;;;;;;;;;;;;;;;;;;;;
2021/12/01 13:11:38;;;;;;;;;1.00;1.00;;;;;12.36;63.50;99712.16;6225977;22;46158;-85
2021/12/01 13:14:04;;;;;;;;;2.00;1.00;;;;;12.29;64.27;99710.59;6304413;22;45444;-85
2021/12/01 13:16:32;;;;;;;;;2.67;2.00;;;;;12.20;65.13;99710.84;6372062;22;45368;-83
2021/12/01 13:19:07;;;;;;;;;2.00;2.00;;;;;12.25;65.64;99719.50;6343768;22;45341;-86
2021/12/01 13:21:38;;;;;;;;;3.00;3.00;;;;;12.29;65.93;99713.22;6343424;22;45807;-82
2021/12/01 13:24:05;;;;;;;;;5.00;4.00;;;;;12.60;65.83;99718.53;6370562;22;45396;-84
2021/12/01 13:27:07;;;;;;;;;3.67;3.00;;;;;12.66;65.61;99713.06;6369466;22;45346;-84
2021/12/01 13:29:35;;;;;;;;;2.00;2.00;;;;;12.90;65.50;99714.09;6335715;22;45184;-84
2021/12/01 13:32:01;;;;;;;;;0.67;0.00;;;;;13.19;63.29;99713.22;6368125;22;45825;-84
2021/12/01 13:34:30;;;;;;;;;0.00;0.00;;;;;13.21;62.98;99711.41;6369095;22;47056;-85
2021/12/01 13:37:01;;;;;;;;;0.00;0.00;;;;;13.09;61.77;99721.47;6369678;22;45272;-82
2021/12/01 13:39:29;;;;;;;;;2.00;2.00;;;;;12.82;61.18;99715.25;6342330;22;45410;-85
2021/12/01 13:42:24;;;;;;;;;1.67;1.67;;;;;12.65;61.06;99732.47;6371391;22;45405;-84
2021/12/01 13:44:55;;;;;;;;;1.00;1.00;;;;;12.36;61.54;99720.94;6342569;22;45568;-84
2021/12/01 13:47:40;;;;;;;;;;;;;;;;;;;;;
2021/12/01 13:50:09;;;;;;;;;1.00;0.00;;;;;12.14;61.51;99731.22;6371850;22;67953;-87
2021/12/01 13:52:39;;;;;;;;;1.00;1.00;;;;;12.14;61.68;99749.69;6343406;22;45431;-86
2021/12/01 13:55:27;;;;;;;;;0.33;0.33;;;;;12.05;62.12;99746.41;6343638;22;46022;-88
2021/12/01 13:58:10;;;;;;;;;0.67;0.00;;;;;11.86;62.03;99732.81;6343587;22;45601;-88
2021/12/01 14:00:40;;;;;;;;;0.00;0.00;;;;;11.81;62.76;99748.72;6345770;22;45307;-88
2021/12/01 14:03:12;;;;;;;;;3.00;1.00;;;;;11.64;62.91;99735.09;6372321;22;45146;-87
2021/12/01 14:05:39;;;;;;;;;0.33;0.33;;;;;11.57;63.35;99733.50;6372144;22;45824;-86
2021/12/01 14:08:27;;;;;;;;;1.00;0.00;;;;;11.56;63.73;99752.88;6375604;22;45461;-89
2021/12/01 14:11:23;;;;;;;;;1.00;1.00;;;;;11.57;63.91;99749.31;6343159;22;45339;-85
2021/12/01 14:13:58;;;;;;;;;0.00;0.00;;;;;11.53;64.28;99747.69;6343115;22;45458;-88
2021/12/01 14:16:28;;;;;;;;;2.00;2.00;;;;;11.50;64.42;99748.63;6343384;22;48110;-88
2021/12/01 14:18:55;;;;;;;;;2.00;0.67;;;;;11.57;64.47;99771.28;6344278;22;45216;-87
2021/12/01 14:21:22;;;;;;;;;1.00;0.00;;;;;11.48;64.33;99766.22;6342958;22;45133;-86
2021/12/01 14:23:52;;;;;;;;;0.33;0.33;;;;;11.37;64.59;99765.63;6342879;22;45634;-87
2021/12/01 14:26:31;;;;;;;;;3.00;0.00;;;;;11.29;64.79;99760.50;6371551;22;45585;-86
2021/12/01 14:28:58;;;;;;;;;3.00;1.00;;;;;11.19;65.04;99744.03;6343437;22;45336;-87
2021/12/01 14:31:24;;;;;;;;;1.00;1.00;;;;;11.29;65.14;99754.38;6341924;22;45392;-87
2021/12/01 14:34:30;;;;;;;;;0.00;0.00;;;;;11.41;64.01;99762.00;6343379;22;45502;-87
2021/12/01 14:36:56;;;;;;;;;0.33;0.00;;;;;11.23;64.02;99748.34;6343085;22;46329;-88
2021/12/01 14:39:25;;;;;;;;;1.33;1.00;;;;;11.19;63.96;99751.06;6368238;22;45274;-85
2021/12/01 14:41:54;;;;;;;;;1.00;1.00;;;;;11.17;64.34;99748.50;6369321;22;45294;-85
2021/12/01 14:45:01;;;;;;;;;1.00;1.00;;;;;11.23;64.46;99756.25;6339592;22;45631;-85
2021/12/01 14:47:59;;;;;;;;;;;;;;;;;;;;;
2021/12/01 14:55:15;;;;;;;;;;;;;;;;;;;;;
2021/12/01 15:04:57;;;;;;;;;3.00;3.00;;;;;11.31;65.10;99787.69;6146545;23;45309;-84
2021/12/01 15:11:42;;;;;;;;;;;;;;;;;;;;;
2021/12/01 15:18:59;;;;;;;;;;;;;;;;;;;;;
2021/12/01 15:58:23;;;;;;;;;;;;;;;;;;;;;
2021/12/01 17:57:36;;;;;;;;;5.00;2.00;;;;;9.03;66.05;99868.66;6193080;23;45341;-88
2021/12/01 18:47:11;;;;;;;;;;;;;;;;;;;;;
2021/12/01 21:12:28;;;;;;;;;8.50;6.50;;;;;8.50;68.36;99990.72;6294428;22;45256;-85
